Pagrindinis puslapis
METAR-TAF:

METAR-TAF

Oro uostai :

Atka, Aliaska, Jungtinės Amerikos Valstijos

platuma: 52-13-13N, ilguma: 174-12-23W, Aukštis: 17 m

Dabartinis oras

Ataskaita buvo paskelbta 3 valandos ir 25 minutes, ne 14:56 UTC
Vėjas 7 kt iš Šiaurės Vakarų
Temperatūra -2°C
Drėgmė 63%
Slėgis 1013 hPa
Matomumas: 16.1 km
Apsiniaukę ne aukštis 4300 ft
nežinomas

METAR: PAAK 291456Z AUTO 32007KT 10SM UP OVC043 M02/M08 A2990 RMK AO2 UPE04B36SNB04E36B38E49 SLP128 6//// T10221083 50000 FZRANO PNO $

Laikas: 09:21 (18:21 UTC)


TAF: trūkstamas

Orai ataskaitas ir orų prognozės (METAR, TAF).

turimą stotys yra geltonos ir raudonos taškus žemėlapyje.

Perkelti pele per norėdami pamatyti stoties vardą.

Tada spustelėkite, norėdami matyti oro stebėjimo ir prognozės.

Norėdami pakeisti žemėlapį: spustelėkite ant žalios mygtukų su juodo kryžiaus žemyn,; žalią mygtuką su brūkšneliu, jei norite nutolinti; arba žalių rodyklių gretimoms žemėlapius.


METAR-TAF: